Time;durP1;ratioP1;P1;durP2;ratioP2;P2;SDS_P1;SDS_P2;PMS_P1;PMS_P2;Temp;Humidity;BMP_temperature;BMP_pressure;BME280_temperature;BME280_humidity;BME280_pressure;Samples;Min_cycle;Max_cycle;Signal;HPM_P1;HPM_P2
2021/09/29 00:00:00;;;;;;;19.90;17.85;;;;;;;13.82;100.00;96190.75;1028643;28;20031;-51
2021/09/29 00:00:31;;;;;;;20.60;17.02;;;;;;;13.82;100.00;96187.28;1032208;28;20538;-52
2021/09/29 00:01:02;;;;;;;20.25;17.50;;;;;;;13.79;100.00;96194.47;1036361;28;20038;-52
2021/09/29 00:01:33;;;;;;;18.58;16.77;;;;;;;13.76;100.00;96188.63;1036281;28;20022;-52
2021/09/29 00:02:03;;;;;;;19.15;17.10;;;;;;;13.77;100.00;96183.19;1036289;28;20017;-52
2021/09/29 00:02:34;;;;;;;19.50;17.42;;;;;;;13.79;100.00;96189.22;1024060;28;20065;-51
2021/09/29 00:03:05;;;;;;;17.60;15.45;;;;;;;13.82;100.00;96189.94;1020004;29;20162;-52
2021/09/29 00:03:36;;;;;;;18.48;15.82;;;;;;;13.82;100.00;96184.66;1020246;29;20047;-53
2021/09/29 00:04:07;;;;;;;18.33;16.25;;;;;;;13.78;100.00;96189.34;1028215;28;20328;-51
2021/09/29 00:04:38;;;;;;;17.88;16.13;;;;;;;13.86;100.00;96188.72;1027937;28;20408;-52
2021/09/29 00:05:08;;;;;;;16.70;15.00;;;;;;;13.81;100.00;96189.06;1031988;28;20031;-51
2021/09/29 00:05:39;;;;;;;17.25;15.55;;;;;;;13.77;100.00;96187.63;1024099;29;20019;-52
2021/09/29 00:06:10;;;;;;;17.15;15.27;;;;;;;13.82;100.00;96187.28;1024198;29;20063;-52
2021/09/29 00:06:41;;;;;;;17.25;15.45;;;;;;;13.80;100.00;96187.41;1023858;28;20114;-52
2021/09/29 00:07:12;;;;;;;17.40;15.68;;;;;;;13.79;100.00;96183.94;1028242;28;20058;-52
2021/09/29 00:07:42;;;;;;;18.02;16.13;;;;;;;13.79;100.00;96186.59;1028485;28;20432;-51
2021/09/29 00:08:13;;;;;;;17.98;16.08;;;;;;;13.78;100.00;96178.78;1032117;28;20014;-52
2021/09/29 00:08:44;;;;;;;16.33;14.73;;;;;;;13.80;100.00;96180.34;1028252;28;20018;-52
2021/09/29 00:09:14;;;;;;;19.77;16.00;;;;;;;13.77;100.00;96179.75;1028402;28;20026;-52
2021/09/29 00:09:45;;;;;;;22.75;16.45;;;;;;;13.79;100.00;96181.31;1028189;28;20023;-52
2021/09/29 00:10:16;;;;;;;22.05;17.90;;;;;;;13.77;100.00;96182.38;1028455;28;20035;-51
2021/09/29 00:10:47;;;;;;;20.75;17.20;;;;;;;13.74;100.00;96178.19;1024201;28;20556;-52
2021/09/29 00:11:17;;;;;;;18.55;16.55;;;;;;;13.78;100.00;96176.16;1024040;29;20071;-52
2021/09/29 00:11:48;;;;;;;19.25;17.25;;;;;;;13.77;100.00;96177.94;1020287;29;20058;-51
2021/09/29 00:12:21;;;;;;;17.80;15.98;;;;;;;13.74;100.00;96177.34;1024305;28;20645;-52
2021/09/29 00:12:52;;;;;;;18.58;16.67;;;;;;;13.72;100.00;96182.75;1027926;28;20026;-52
2021/09/29 00:13:24;;;;;;;19.08;17.15;;;;;;;13.75;100.00;96181.66;1024603;28;20078;-52
2021/09/29 00:13:55;;;;;;;20.15;18.15;;;;;;;13.80;100.00;96179.50;1032004;28;20025;-52
2021/09/29 00:14:25;;;;;;;19.60;17.70;;;;;;;13.83;100.00;96173.97;1032097;28;20130;-52
2021/09/29 00:14:56;;;;;;;18.92;17.05;;;;;;;13.83;100.00;96178.41;1027903;28;20508;-52
2021/09/29 00:15:27;;;;;;;19.90;17.45;;;;;;;13.84;100.00;96182.75;1032048;28;20502;-52
2021/09/29 00:15:58;;;;;;;19.23;17.25;;;;;;;13.80;100.00;96179.50;1028172;28;20115;-52
2021/09/29 00:16:28;;;;;;;19.40;17.30;;;;;;;13.78;100.00;96171.72;1032045;28;20519;-53
2021/09/29 00:17:11;;;;;;;19.83;17.88;;;;;;;13.79;100.00;96172.56;1031875;28;20046;-51
2021/09/29 00:17:43;;;;;;;19.50;17.45;;;;;;;13.83;100.00;96173.16;1036163;28;20076;-52
2021/09/29 00:18:14;;;;;;;20.75;17.83;;;;;;;13.80;100.00;96172.44;1032137;28;20565;-53
2021/09/29 00:18:45;;;;;;;19.42;17.02;;;;;;;13.78;100.00;96171.72;1024208;29;20067;-53
2021/09/29 00:19:16;;;;;;;20.88;18.67;;;;;;;13.84;100.00;96172.19;1024012;29;20569;-53
2021/09/29 00:19:46;;;;;;;20.77;18.65;;;;;;;13.69;100.00;96159.28;1024616;28;20090;-52
2021/09/29 00:20:17;;;;;;;20.58;18.38;;;;;;;13.71;100.00;96167.91;1036016;28;20515;-52
2021/09/29 00:20:48;;;;;;;22.15;18.45;;;;;;;13.67;100.00;96169.09;1023892;28;20560;-53
2021/09/29 00:21:19;;;;;;;20.05;18.00;;;;;;;13.72;100.00;96172.22;1019500;29;20363;-52
2021/09/29 00:21:49;;;;;;;20.92;18.75;;;;;;;13.82;100.00;96169.69;1016577;29;20092;-52
2021/09/29 00:22:20;;;;;;;20.65;18.42;;;;;;;13.84;100.00;96170.41;1020540;28;20039;-52
2021/09/29 00:22:51;;;;;;;20.80;17.67;;;;;;;13.77;100.00;96170.03;1020205;29;20512;-51
2021/09/29 00:23:21;;;;;;;18.80;16.88;;;;;;;13.84;100.00;96172.19;1016059;29;20074;-52
2021/09/29 00:23:52;;;;;;;19.58;17.58;;;;;;;13.79;100.00;96175.19;1020174;29;20011;-52
2021/09/29 00:24:23;;;;;;;19.23;17.15;;;;;;;13.71;100.00;96173.16;1020491;29;20098;-52
2021/09/29 00:24:54;;;;;;;20.90;17.50;;;;;;;13.73;100.00;96170.41;1024683;28;20049;-53
2021/09/29 00:25:24;;;;;;;18.63;16.52;;;;;;;13.77;100.00;96171.84;1040243;28;20025;-52
2021/09/29 00:25:55;;;;;;;20.55;17.80;;;;;;;13.78;100.00;96173.53;1036258;28;20022;-52
2021/09/29 00:26:26;;;;;;;19.50;17.50;;;;;;;13.82;100.00;96174.13;1028055;28;20055;-52
2021/09/29 00:26:56;;;;;;;19.48;17.17;;;;;;;13.83;100.00;96170.50;1032200;28;20050;-52
2021/09/29 00:27:27;;;;;;;19.17;17.20;;;;;;;13.86;100.00;96176.38;1032023;28;20069;-53
2021/09/29 00:27:58;;;;;;;19.48;16.35;;;;;;;13.86;100.00;96173.75;1024235;28;20476;-52
2021/09/29 00:28:29;;;;;;;17.35;15.52;;;;;;;13.86;100.00;96181.66;1020220;29;20473;-53
2021/09/29 00:28:59;;;;;;;18.92;16.92;;;;;;;13.87;100.00;96175.44;1024120;29;20054;-52
2021/09/29 00:29:30;;;;;;;19.42;16.95;;;;;;;13.87;100.00;96172.78;1027894;28;20147;-52
2021/09/29 00:30:04;;;;;;;18.95;16.75;;;;;;;13.80;100.00;96175.06;1024141;29;20113;-53
2021/09/29 00:30:39;;;;;;;19.88;16.73;;;;;;;13.71;100.00;96169.69;1024373;29;20019;-52
2021/09/29 00:31:25;;;;;;;18.77;16.77;;;;;;;13.78;100.00;96178.78;1017523;29;20060;-52
2021/09/29 00:31:56;;;;;;;17.75;15.95;;;;;;;13.81;100.00;96178.53;1031872;28;20027;-52
2021/09/29 00:32:28;;;;;;;19.27;16.85;;;;;;;13.78;100.00;96177.00;1032113;28;20053;-52
2021/09/29 00:33:02;;;;;;;17.75;15.77;;;;;;;13.84;100.00;96173.03;1023832;29;20106;-53
2021/09/29 00:33:36;;;;;;;17.55;15.75;;;;;;;13.79;100.00;96176.03;1027913;28;20093;-53
2021/09/29 00:34:10;;;;;;;19.45;16.67;;;;;;;13.80;100.00;96171.59;1020044;29;20119;-53
2021/09/29 00:34:42;;;;;;;18.02;16.10;;;;;;;13.77;100.00;96177.09;1020117;29;20024;-53
2021/09/29 00:35:14;;;;;;;19.10;16.45;;;;;;;13.72;100.00;96174.84;1020177;29;20074;-53
2021/09/29 00:35:45;;;;;;;18.63;16.60;;;;;;;13.72;100.00;96169.59;1027913;28;20026;-53
2021/09/29 00:36:17;;;;;;;17.88;16.02;;;;;;;13.72;100.00;96168.72;1028217;28;20512;-53
2021/09/29 00:36:47;;;;;;;18.67;16.77;;;;;;;13.76;100.00;96167.56;1031966;28;20118;-52
2021/09/29 00:37:18;;;;;;;20.85;17.45;;;;;;;13.76;100.00;96176.28;1032162;28;20444;-52
2021/09/29 00:37:49;;;;;;;20.33;18.20;;;;;;;13.73;100.00;96171.25;1027968;28;20094;-52
2021/09/29 00:38:19;;;;;;;18.15;16.33;;;;;;;13.76;100.00;96173.66;1020114;29;20054;-53
2021/09/29 00:38:50;;;;;;;18.05;16.15;;;;;;;13.76;100.00;96172.81;1024051;29;20051;-52
2021/09/29 00:39:21;;;;;;;18.35;16.17;;;;;;;13.81;100.00;96170.63;1020083;29;20357;-52
2021/09/29 00:39:52;;;;;;;19.00;16.15;;;;;;;13.77;100.00;96169.22;1020018;29;20031;-52
2021/09/29 00:40:22;;;;;;;18.23;16.35;;;;;;;13.80;100.00;96171.59;1027950;28;20133;-51
2021/09/29 00:40:53;;;;;;;18.98;17.02;;;;;;;13.75;100.00;96160.59;1028074;28;20022;-52
2021/09/29 00:41:23;;;;;;;19.00;16.52;;;;;;;13.78;100.00;96177.00;1016014;29;20056;-52
2021/09/29 00:41:55;;;;;;;23.70;17.02;;;;;;;13.83;100.00;96167.88;1023825;29;20114;-52
2021/09/29 00:42:26;;;;;;;18.27;16.48;;;;;;;13.75;100.00;96171.97;1020012;29;20023;-53
2021/09/29 00:42:56;;;;;;;20.33;16.52;;;;;;;13.78;100.00;96174.34;1019876;29;20027;-52
2021/09/29 00:43:27;;;;;;;18.33;16.33;;;;;;;13.77;100.00;96175.31;1020442;29;20498;-52
2021/09/29 00:43:58;;;;;;;18.17;16.27;;;;;;;13.77;100.00;96175.31;1020485;28;20429;-52
2021/09/29 00:44:29;;;;;;;18.73;16.83;;;;;;;13.76;100.00;96173.66;1020366;28;20023;-52
2021/09/29 00:45:00;;;;;;;18.77;16.42;;;;;;;13.78;100.00;96171.72;1027823;28;20019;-52
2021/09/29 00:45:31;;;;;;;17.77;15.93;;;;;;;13.75;100.00;96181.66;1027984;28;20081;-52
2021/09/29 00:46:01;;;;;;;16.83;14.93;;;;;;;13.81;100.00;96173.25;1032310;28;20022;-52
2021/09/29 00:46:32;;;;;;;17.05;15.05;;;;;;;13.82;100.00;96176.75;1036059;28;20121;-52
2021/09/29 00:47:03;;;;;;;20.55;16.45;;;;;;;13.80;100.00;96179.50;1032182;28;20029;-53
2021/09/29 00:47:34;;;;;;;25.00;16.40;;;;;;;13.74;100.00;96175.56;1032214;28;20556;-52
2021/09/29 00:48:05;;;;;;;18.83;16.70;;;;;;;13.71;100.00;96180.22;1032402;28;20018;-52
2021/09/29 00:48:36;;;;;;;19.58;17.05;;;;;;;13.73;100.00;96176.50;1036078;28;20025;-52
2021/09/29 00:49:06;;;;;;;19.17;17.15;;;;;;;13.71;100.00;96175.81;1032133;28;20121;-53
2021/09/29 00:49:37;;;;;;;19.70;17.00;;;;;;;13.72;100.00;96176.63;1019984;29;20119;-51
2021/09/29 00:50:08;;;;;;;20.02;17.92;;;;;;;13.73;100.00;96173.88;1016225;29;20434;-53
2021/09/29 00:50:39;;;;;;;21.95;18.67;;;;;;;13.70;100.00;96179.41;1020016;29;20478;-53
2021/09/29 00:51:10;;;;;;;22.50;18.17;;;;;;;13.70;100.00;96179.41;1020366;29;20114;-53
2021/09/29 00:51:41;;;;;;;19.83;17.27;;;;;;;13.67;100.00;96177.00;1021231;28;20035;-52
2021/09/29 00:52:12;;;;;;;20.20;18.00;;;;;;;13.62;100.00;96179.16;1024062;28;20049;-53
2021/09/29 00:52:44;;;;;;;19.70;17.60;;;;;;;13.66;100.00;96174.50;1020111;29;20023;-52
2021/09/29 00:53:14;;;;;;;19.90;17.65;;;;;;;13.69;100.00;96176.88;1024045;29;20505;-52
2021/09/29 00:53:46;;;;;;;18.38;16.45;;;;;;;13.72;100.00;96176.63;1024159;29;20031;-52
2021/09/29 00:54:17;;;;;;;20.65;17.45;;;;;;;13.74;100.00;96175.56;1020330;29;20020;-52
2021/09/29 00:54:47;;;;;;;18.23;16.27;;;;;;;13.64;100.00;96187.78;1020024;29;20027;-53
2021/09/29 00:55:18;;;;;;;20.67;17.52;;;;;;;13.65;100.00;96186.81;1024060;29;20046;-52
2021/09/29 00:55:49;;;;;;;18.33;16.35;;;;;;;13.66;100.00;96183.22;1028751;28;20022;-52
2021/09/29 00:56:19;;;;;;;20.77;18.58;;;;;;;13.69;100.00;96185.63;1024440;29;20114;-52
2021/09/29 00:56:51;;;;;;;20.60;18.35;;;;;;;13.65;100.00;96184.19;1020238;29;20028;-52
2021/09/29 00:57:22;;;;;;;19.38;17.17;;;;;;;13.62;100.00;96184.41;1024243;29;20023;-51
2021/09/29 00:57:52;;;;;;;19.13;16.98;;;;;;;13.62;100.00;96192.31;1028155;28;20501;-53
2021/09/29 00:58:23;;;;;;;19.45;16.27;;;;;;;13.67;100.00;96184.06;1024090;29;20523;-51
2021/09/29 00:58:54;;;;;;;18.63;16.70;;;;;;;13.60;100.00;96187.16;1023834;29;20309;-53
2021/09/29 00:59:24;;;;;;;19.08;16.35;;;;;;;13.65;100.00;96186.00;1024121;29;20039;-52
2021/09/29 00:59:55;;;;;;;19.45;17.25;;;;;;;13.64;100.00;96192.19;1027997;28;20110;-52
2021/09/29 01:00:26;;;;;;;19.58;17.58;;;;;;;13.58;100.00;96189.09;1020086;29;20143;-52
2021/09/29 01:00:56;;;;;;;21.10;18.13;;;;;;;13.57;100.00;96189.19;1027921;28;20579;-53
2021/09/29 01:01:27;;;;;;;19.45;17.48;;;;;;;13.55;100.00;96181.44;1024030;29;20033;-52
2021/09/29 01:01:58;;;;;;;18.88;16.98;;;;;;;13.58;100.00;96186.47;1023961;29;20777;-52
2021/09/29 01:02:30;;;;;;;19.60;17.60;;;;;;;13.55;100.00;96189.34;1024096;29;20023;-51
2021/09/29 01:03:01;;;;;;;21.15;18.95;;;;;;;13.60;100.00;96194.25;1023702;29;20066;-52
2021/09/29 01:03:32;;;;;;;19.88;17.85;;;;;;;13.60;100.00;96183.72;1027984;28;20507;-52
2021/09/29 01:04:03;;;;;;;19.70;17.60;;;;;;;13.54;100.00;96187.66;1028278;28;20082;-52
2021/09/29 01:04:34;;;;;;;21.40;19.20;;;;;;;13.55;100.00;96193.75;1032342;28;20022;-52
2021/09/29 01:05:05;;;;;;;24.30;19.33;;;;;;;13.58;100.00;96198.78;1028123;28;20090;-52
2021/09/29 01:05:35;;;;;;;21.38;19.13;;;;;;;13.59;100.00;96193.41;1024243;29;20023;-50
2021/09/29 01:06:23;;;;;;;20.15;18.08;;;;;;;13.60;100.00;96194.25;1024309;29;20110;-51
2021/09/29 01:07:17;;;;;;;20.92;18.75;;;;;;;13.68;100.00;96191.00;1024291;28;20011;-52
2021/09/29 01:07:59;;;;;;;21.35;17.90;;;;;;;13.73;100.00;96188.84;1040314;28;20021;-50
2021/09/29 01:08:33;;;;;;;24.55;18.38;;;;;;;13.69;100.00;96188.25;1036194;28;20010;-51
2021/09/29 01:09:11;;;;;;;21.75;19.08;;;;;;;13.72;100.00;96190.66;1027950;28;20409;-52
2021/09/29 01:10:12;;;;;;;22.90;18.13;;;;;;;13.66;100.00;96190.28;1023908;29;20054;-52
2021/09/29 01:10:43;;;;;;;22.45;18.95;;;;;;;13.61;100.00;96195.94;1025985;28;20023;-53
2021/09/29 01:11:50;;;;;;;21.13;17.48;;;;;;;13.59;100.00;96193.41;1027821;28;20113;-53
2021/09/29 01:12:20;;;;;;;20.48;17.48;;;;;;;13.53;100.00;96199.16;1028685;28;20089;-52
2021/09/29 01:12:54;;;;;;;22.00;18.58;;;;;;;13.53;100.00;96196.53;1023821;29;20015;-52
2021/09/29 01:13:27;;;;;;;22.95;18.83;;;;;;;13.50;100.00;96191.50;1019976;29;20032;-53
2021/09/29 01:14:14;;;;;;;20.65;18.58;;;;;;;13.50;100.00;96204.66;1023892;29;20047;-52
2021/09/29 01:14:53;;;;;;;22.10;19.00;;;;;;;13.57;100.00;96200.59;1023023;29;20026;-52
2021/09/29 01:15:26;;;;;;;24.70;18.77;;;;;;;13.59;100.00;96203.13;1023787;29;20011;-53
2021/09/29 01:16:02;;;;;;;22.67;18.98;;;;;;;13.64;100.00;96202.75;1027712;28;20062;-52
2021/09/29 01:16:35;;;;;;;23.52;19.10;;;;;;;13.60;100.00;96202.97;1023862;29;20012;-52
2021/09/29 01:17:06;;;;;;;21.70;18.90;;;;;;;13.59;100.00;96211.00;1023923;29;20016;-53
2021/09/29 01:17:40;;;;;;;21.10;18.80;;;;;;;13.57;100.00;96203.22;1019952;29;20604;-52
2021/09/29 01:18:12;;;;;;;20.08;17.33;;;;;;;13.58;100.00;96201.44;1020032;29;20023;-51
2021/09/29 01:18:43;;;;;;;20.60;18.40;;;;;;;13.59;100.00;96203.13;1023868;29;20050;-52
2021/09/29 01:19:26;;;;;;;19.77;17.52;;;;;;;13.63;100.00;96206.31;1028812;28;20022;-52
2021/09/29 01:20:05;;;;;;;19.63;17.63;;;;;;;13.67;100.00;96200.69;1029821;28;20011;-52
2021/09/29 01:20:42;;;;;;;23.50;19.25;;;;;;;13.75;100.00;96200.09;1027838;28;20011;-52
2021/09/29 01:21:13;;;;;;;19.38;17.33;;;;;;;13.78;100.00;96198.06;1027985;28;20026;-53
2021/09/29 01:21:48;;;;;;;21.15;17.70;;;;;;;13.77;100.00;96201.63;1023706;29;20019;-52
2021/09/29 01:22:25;;;;;;;18.67;16.67;;;;;;;13.75;100.00;96198.28;1025590;28;20050;-53
2021/09/29 01:23:15;;;;;;;20.48;17.25;;;;;;;13.67;100.00;96200.69;1023690;29;20564;-52
2021/09/29 01:24:19;;;;;;;22.73;17.85;;;;;;;13.64;100.00;96200.94;1027786;28;20118;-53
2021/09/29 01:24:51;;;;;;;19.70;17.60;;;;;;;13.64;100.00;96200.94;1026818;28;20055;-52
2021/09/29 01:25:38;;;;;;;19.85;17.75;;;;;;;13.64;100.00;96205.38;1024399;28;20050;-51
2021/09/29 01:26:18;;;;;;;22.30;18.30;;;;;;;13.70;100.00;96205.75;1031700;28;20022;-52
2021/09/29 01:26:49;;;;;;;20.40;18.23;;;;;;;13.70;100.00;96204.88;1024008;29;20367;-52
2021/09/29 01:27:21;;;;;;;20.98;17.92;;;;;;;13.69;100.00;96198.78;1024054;29;20025;-53
2021/09/29 01:27:52;;;;;;;21.92;19.58;;;;;;;13.69;100.00;96201.41;1023742;29;20426;-52
2021/09/29 01:28:33;;;;;;;21.98;18.80;;;;;;;13.60;100.00;96188.97;1023868;29;20019;-52
2021/09/29 01:29:09;;;;;;;21.33;19.08;;;;;;;13.69;100.00;96211.13;1023799;29;20098;-53
2021/09/29 01:29:41;;;;;;;23.60;20.00;;;;;;;13.66;100.00;96211.34;1023834;29;20019;-52
2021/09/29 01:30:11;;;;;;;21.70;19.02;;;;;;;13.63;100.00;96206.31;1027828;28;20023;-51
2021/09/29 01:30:42;;;;;;;21.67;19.45;;;;;;;13.65;100.00;96210.53;1019954;29;20016;-52
2021/09/29 01:31:14;;;;;;;22.38;19.73;;;;;;;13.66;100.00;96214.81;1019997;29;20099;-51
2021/09/29 01:31:44;;;;;;;29.40;20.90;;;;;;;13.69;100.00;96217.22;1020650;28;20020;-53
2021/09/29 01:32:15;;;;;;;22.55;20.13;;;;;;;13.69;100.00;96217.22;1024265;28;20023;-52
2021/09/29 01:32:46;;;;;;;21.92;19.52;;;;;;;13.67;100.00;96210.41;1023718;29;20485;-52
2021/09/29 01:33:17;;;;;;;23.25;19.83;;;;;;;13.68;100.00;96214.69;1019856;29;20132;-52
2021/09/29 01:33:47;;;;;;;22.65;20.10;;;;;;;13.66;100.00;96209.53;1019919;29;20091;-53
2021/09/29 01:34:18;;;;;;;21.88;19.67;;;;;;;13.65;100.00;96209.69;1019727;29;20028;-52
2021/09/29 01:34:50;;;;;;;21.60;19.30;;;;;;;13.66;100.00;96211.34;1020220;29;20023;-52
2021/09/29 01:35:20;;;;;;;23.65;21.20;;;;;;;13.65;100.00;96213.16;1019846;29;20020;-53
2021/09/29 01:35:51;;;;;;;25.30;21.75;;;;;;;13.63;100.00;96211.59;1024099;28;20074;-52
2021/09/29 01:36:22;;;;;;;24.08;21.02;;;;;;;13.66;100.00;96211.34;1023711;29;20019;-53
2021/09/29 01:36:52;;;;;;;25.17;21.17;;;;;;;13.64;100.00;96211.47;1023789;29;20015;-52
2021/09/29 01:37:23;;;;;;;22.80;20.38;;;;;;;13.63;100.00;96215.06;1031969;28;20453;-52
2021/09/29 01:37:54;;;;;;;23.52;20.92;;;;;;;13.66;100.00;96209.53;1028019;28;20030;-52
2021/09/29 01:38:25;;;;;;;25.98;20.83;;;;;;;13.68;100.00;96215.53;1035603;28;20010;-53
2021/09/29 01:38:57;;;;;;;24.75;19.63;;;;;;;13.67;100.00;96221.78;1031785;28;20022;-52
2021/09/29 01:39:28;;;;;;;21.83;19.13;;;;;;;13.68;100.00;96222.59;1027806;28;20050;-52
2021/09/29 01:39:59;;;;;;;24.23;20.00;;;;;;;13.68;100.00;96220.78;1024233;28;20023;-52
2021/09/29 01:40:29;;;;;;;22.30;19.95;;;;;;;13.67;100.00;96221.78;1019647;29;20051;-51
2021/09/29 01:41:00;;;;;;;25.13;21.20;;;;;;;13.66;100.00;96224.50;1020320;29;20446;-52
2021/09/29 01:41:31;;;;;;;27.73;21.25;;;;;;;13.65;100.00;96220.22;1024131;28;20536;-52
2021/09/29 01:42:02;;;;;;;22.77;19.83;;;;;;;13.60;100.00;96220.56;1020680;28;20102;-52
2021/09/29 01:42:33;;;;;;;22.90;20.50;;;;;;;13.59;100.00;96225.00;1027625;28;20019;-53
2021/09/29 01:43:04;;;;;;;22.25;19.23;;;;;;;13.65;100.00;96220.22;1027882;28;20042;-52
2021/09/29 01:43:35;;;;;;;22.63;20.30;;;;;;;13.65;100.00;96225.50;1023906;29;20078;-52
2021/09/29 01:44:05;;;;;;;23.77;19.55;;;;;;;13.62;100.00;96223.91;1024289;28;20023;-52
2021/09/29 01:44:36;;;;;;;22.40;20.00;;;;;;;13.60;100.00;96220.56;1031608;28;20049;-52
2021/09/29 01:45:07;;;;;;;24.00;20.98;;;;;;;13.64;100.00;96222.00;1023715;29;20114;-52
2021/09/29 01:45:38;;;;;;;24.55;21.55;;;;;;;13.57;100.00;96218.16;1023683;29;20038;-52
2021/09/29 01:46:09;;;;;;;23.58;21.17;;;;;;;13.57;100.00;96212.91;1023778;29;20015;-52
2021/09/29 01:46:39;;;;;;;24.05;21.60;;;;;;;13.53;100.00;96214.09;1023647;29;20121;-53
2021/09/29 01:47:10;;;;;;;23.67;20.73;;;;;;;13.59;100.00;96214.47;1023897;29;20018;-52
2021/09/29 01:47:41;;;;;;;23.80;21.33;;;;;;;13.52;100.00;96210.63;1023849;29;20019;-53
2021/09/29 01:48:12;;;;;;;23.80;21.40;;;;;;;13.57;100.00;96212.91;1024043;29;20019;-52
2021/09/29 01:49:10;;;;;;;24.55;21.95;;;;;;;13.58;100.00;96212.78;1024660;28;20024;-52
2021/09/29 01:49:45;;;;;;;23.95;21.48;;;;;;;13.59;100.00;96208.38;1031944;28;20022;-52
2021/09/29 01:50:23;;;;;;;24.17;21.63;;;;;;;13.57;100.00;96207.63;1031981;28;20018;-53
2021/09/29 01:50:56;;;;;;;24.52;21.98;;;;;;;13.54;100.00;96200.00;1028131;28;20023;-53
2021/09/29 01:51:27;;;;;;;24.33;21.75;;;;;;;13.51;100.00;96200.22;1023749;29;20468;-53
2021/09/29 01:51:57;;;;;;;24.52;22.02;;;;;;;13.49;100.00;96200.34;1021389;29;20027;-52
2021/09/29 01:52:31;;;;;;;25.13;22.42;;;;;;;13.46;100.00;96197.09;1019761;29;20477;-52
2021/09/29 01:53:02;;;;;;;24.02;21.73;;;;;;;13.48;100.00;96200.47;1027440;28;20023;-52
2021/09/29 01:53:33;;;;;;;25.27;22.52;;;;;;;13.48;100.00;96206.56;1027847;28;20019;-53
2021/09/29 01:54:05;;;;;;;25.90;22.33;;;;;;;13.51;100.00;96208.13;1019836;29;20078;-52
2021/09/29 01:54:38;;;;;;;23.35;21.05;;;;;;;13.52;100.00;96204.53;1023739;29;20019;-53
2021/09/29 01:55:08;;;;;;;23.08;20.70;;;;;;;13.50;100.00;96201.19;1023825;29;20088;-52
2021/09/29 01:55:39;;;;;;;24.38;21.67;;;;;;;13.51;100.00;96202.84;1019779;29;20118;-52
2021/09/29 01:56:10;;;;;;;22.73;20.42;;;;;;;13.59;100.00;96203.94;1027760;28;20405;-52
2021/09/29 01:56:42;;;;;;;23.58;20.55;;;;;;;13.62;100.00;96205.47;1027686;28;20151;-52
2021/09/29 01:57:13;;;;;;;23.55;20.92;;;;;;;13.67;100.00;96200.69;1023743;28;20030;-52
2021/09/29 01:57:46;;;;;;;23.80;21.50;;;;;;;13.68;100.00;96197.09;1023665;29;20031;-52
2021/09/29 01:58:17;;;;;;;24.85;20.63;;;;;;;13.70;100.00;96196.97;1020605;29;20039;-53
2021/09/29 01:58:47;;;;;;;25.23;21.38;;;;;;;13.60;100.00;96195.06;1024251;28;20019;-52
2021/09/29 01:59:18;;;;;;;23.70;21.20;;;;;;;13.54;100.00;96197.34;1024138;28;20541;-52
2021/09/29 01:59:49;;;;;;;24.50;22.02;;;;;;;13.50;100.00;96198.56;1031818;28;20024;-52
2021/09/29 02:00:20;;;;;;;24.13;21.65;;;;;;;13.48;100.00;96197.84;1028005;28;20057;-52
2021/09/29 02:00:50;;;;;;;27.75;22.25;;;;;;;13.47;100.00;96196.16;1031832;28;20030;-53
2021/09/29 02:01:21;;;;;;;23.40;21.05;;;;;;;13.44;100.00;96196.38;1027681;28;20022;-53
2021/09/29 02:01:53;;;;;;;24.48;22.08;;;;;;;13.39;100.00;96197.59;1027811;28;20023;-51
2021/09/29 02:02:23;;;;;;;23.55;21.15;;;;;;;13.43;100.00;96203.47;1031601;28;20025;-53
2021/09/29 02:02:56;;;;;;;24.00;21.42;;;;;;;13.41;100.00;96202.75;1027505;28;20102;-51
2021/09/29 02:03:26;;;;;;;25.85;23.08;;;;;;;13.32;100.00;96201.66;1019665;29;20024;-52
2021/09/29 02:03:57;;;;;;;24.17;21.55;;;;;;;13.38;100.00;96208.22;1023737;29;20036;-53
2021/09/29 02:04:28;;;;;;;25.02;22.42;;;;;;;13.39;100.00;96202.03;1023818;29;20019;-52
2021/09/29 02:04:59;;;;;;;25.08;22.58;;;;;;;13.27;100.00;96195.91;1019810;29;20024;-52
2021/09/29 02:05:31;;;;;;;24.90;22.30;;;;;;;13.36;100.00;96208.38;1019630;29;20055;-52
2021/09/29 02:06:02;;;;;;;24.73;22.13;;;;;;;13.35;100.00;96208.50;1016241;29;20020;-52
2021/09/29 02:06:51;;;;;;;23.42;21.05;;;;;;;13.26;100.00;96215.25;1019648;29;20039;-52
2021/09/29 02:07:22;;;;;;;23.95;21.10;;;;;;;13.30;100.00;96214.09;1027583;28;20018;-52
2021/09/29 02:07:53;;;;;;;23.52;21.10;;;;;;;13.27;100.00;96206.41;1019606;29;20122;-52
2021/09/29 02:08:23;;;;;;;25.05;22.58;;;;;;;13.22;100.00;96214.66;1019907;29;20016;-52
2021/09/29 02:08:54;;;;;;;23.48;21.08;;;;;;;13.22;100.00;96221.72;1027704;28;20396;-53
2021/09/29 02:09:26;;;;;;;23.85;21.33;;;;;;;13.22;100.00;96208.56;1027807;28;20019;-52
2021/09/29 02:09:57;;;;;;;24.13;21.55;;;;;;;13.23;100.00;96208.44;1027715;28;20458;-52
2021/09/29 02:10:28;;;;;;;24.13;21.63;;;;;;;13.23;100.00;96208.44;1019684;29;20063;-53
2021/09/29 02:10:58;;;;;;;24.02;21.52;;;;;;;13.22;100.00;96211.19;1019757;29;20019;-52
2021/09/29 02:11:29;;;;;;;24.02;20.83;;;;;;;13.23;100.00;96210.22;1027803;28;20523;-52
2021/09/29 02:12:00;;;;;;;23.75;21.27;;;;;;;13.24;100.00;96209.28;1023772;29;20137;-51
2021/09/29 02:12:31;;;;;;;24.30;21.83;;;;;;;13.29;100.00;96207.13;1023950;29;20034;-50
2021/09/29 02:13:02;;;;;;;23.52;21.10;;;;;;;13.34;100.00;96215.53;1031968;28;20478;-50
2021/09/29 02:13:33;;;;;;;24.45;21.88;;;;;;;13.35;100.00;96203.22;1027796;28;20019;-50
2021/09/29 02:14:03;;;;;;;24.83;22.15;;;;;;;13.31;100.00;96210.50;1027596;28;20497;-52
2021/09/29 02:14:34;;;;;;;24.40;21.73;;;;;;;13.29;100.00;96209.75;1023770;29;20110;-52
2021/09/29 02:15:05;;;;;;;24.15;20.77;;;;;;;13.27;100.00;96200.28;1031541;28;20050;-52
2021/09/29 02:15:36;;;;;;;22.63;20.30;;;;;;;13.26;100.00;96201.28;1027710;28;20019;-51
2021/09/29 02:16:07;;;;;;;24.70;21.77;;;;;;;13.24;100.00;96204.00;1023568;28;20039;-52
2021/09/29 02:16:37;;;;;;;25.00;22.30;;;;;;;13.23;100.00;96207.59;1023661;29;20069;-52
2021/09/29 02:17:08;;;;;;;24.08;21.58;;;;;;;13.24;100.00;96204.00;1019570;29;20059;-52
2021/09/29 02:17:39;;;;;;;23.58;21.25;;;;;;;13.31;100.00;96201.78;1019946;29;20027;-51
2021/09/29 02:18:10;;;;;;;24.13;21.58;;;;;;;13.33;100.00;96197.25;1019936;29;20414;-51
2021/09/29 02:18:40;;;;;;;23.17;20.67;;;;;;;13.31;100.00;96202.63;1016288;29;20111;-51
2021/09/29 02:19:11;;;;;;;21.85;19.55;;;;;;;13.32;100.00;96201.66;1024157;28;20023;-52
2021/09/29 02:19:42;;;;;;;23.15;20.73;;;;;;;13.29;100.00;96201.88;1027581;28;20166;-52
2021/09/29 02:20:13;;;;;;;23.67;21.17;;;;;;;13.23;100.00;96197.06;1031877;28;20046;-52
2021/09/29 02:20:44;;;;;;;24.10;21.60;;;;;;;13.16;100.00;96198.50;1027497;28;20023;-52
2021/09/29 02:21:14;;;;;;;25.08;21.77;;;;;;;13.21;100.00;96206.88;1019966;29;20019;-52
2021/09/29 02:21:45;;;;;;;24.23;21.77;;;;;;;13.26;100.00;96207.34;1031592;28;20395;-51
2021/09/29 02:22:16;;;;;;;24.00;21.55;;;;;;;13.26;100.00;96207.34;1031687;28;20415;-53
2021/09/29 02:22:46;;;;;;;23.00;20.67;;;;;;;13.23;100.00;96208.44;1035556;28;20040;-51
2021/09/29 02:23:18;;;;;;;22.38;20.08;;;;;;;13.22;100.00;96211.19;1019617;29;20024;-52
2021/09/29 02:23:49;;;;;;;22.77;20.38;;;;;;;13.17;100.00;96214.16;1019852;29;20024;-52
2021/09/29 02:24:20;;;;;;;23.33;20.92;;;;;;;13.12;100.00;96211.06;1027439;28;20085;-52
2021/09/29 02:24:51;;;;;;;25.02;22.27;;;;;;;13.20;100.00;96215.72;1031959;28;20098;-52
2021/09/29 02:25:23;;;;;;;26.27;22.27;;;;;;;13.15;100.00;96216.06;1031726;28;20045;-52
2021/09/29 02:25:55;;;;;;;22.73;20.45;;;;;;;13.10;100.00;96215.59;1031144;28;20469;-52
2021/09/29 02:26:26;;;;;;;26.58;20.77;;;;;;;13.11;100.00;96221.69;1027592;28;20037;-51
2021/09/29 02:26:56;;;;;;;24.27;21.88;;;;;;;13.17;100.00;96222.03;1028270;28;20018;-52